Time;durP1;ratioP1;P1;durP2;ratioP2;P2;SDS_P1;SDS_P2;PMS_P1;PMS_P2;Temp;Humidity;BMP_temperature;BMP_pressure;BME280_temperature;BME280_humidity;BME280_pressure;Samples;Min_cycle;Max_cycle;Signal;HPM_P1;HPM_P2
2021/01/05 00:01:32;;;;;;;25.20;15.35;;;;;;;12.19;53.38;100602.50;4901970;28;119652;-62
2021/01/05 00:03:58;;;;;;;21.05;15.32;;;;;;;12.19;53.24;100600.59;4901970;28;127558;-62
2021/01/05 00:06:24;;;;;;;21.55;15.23;;;;;;;12.18;53.38;100596.28;4902758;28;117788;-62
2021/01/05 00:08:50;;;;;;;21.92;15.18;;;;;;;12.18;53.32;100593.56;4901725;28;127673;-62
2021/01/05 00:11:16;;;;;;;21.63;15.52;;;;;;;12.19;53.48;100603.28;4867994;28;128213;-62
2021/01/05 00:13:42;;;;;;;21.55;15.15;;;;;;;12.20;53.80;100602.19;4884161;28;126694;-62
2021/01/05 00:16:08;;;;;;;21.50;15.55;;;;;;;12.20;53.34;100602.19;4903622;28;97918;-62
2021/01/05 00:18:34;;;;;;;22.08;15.02;;;;;;;12.20;53.37;100596.81;4902780;28;116678;-62
2021/01/05 00:21:00;;;;;;;21.30;14.77;;;;;;;12.18;53.59;100598.97;4902201;28;127960;-62
2021/01/05 00:23:26;;;;;;;21.98;15.35;;;;;;;12.21;53.55;100603.81;4904754;28;128395;-63
2021/01/05 00:25:52;;;;;;;22.65;15.77;;;;;;;12.20;53.64;100601.41;4922388;28;98037;-62
2021/01/05 00:28:18;;;;;;;22.52;16.13;;;;;;;12.19;53.42;100603.28;4921434;28;128316;-62
2021/01/05 00:30:44;;;;;;;20.33;14.85;;;;;;;12.22;53.48;100600.06;4922192;28;98429;-62
2021/01/05 00:33:11;;;;;;;21.33;15.73;;;;;;;12.19;53.46;100597.91;4887725;28;127657;-62
2021/01/05 00:35:38;;;;;;;22.17;16.33;;;;;;;12.20;53.64;100601.41;4904190;28;98118;-62
2021/01/05 00:38:09;;;;;;;21.73;15.23;;;;;;;12.19;53.69;100588.97;4919549;28;98743;-62
2021/01/05 00:40:36;;;;;;;20.40;15.00;;;;;;;12.20;53.46;100598.69;4920723;28;119310;-62
2021/01/05 00:43:02;;;;;;;22.95;16.13;;;;;;;12.21;53.44;100600.31;4922288;28;97915;-62
2021/01/05 00:45:31;;;;;;;20.60;15.95;;;;;;;12.19;53.45;100599.78;4921496;28;107933;-62
2021/01/05 00:47:58;;;;;;;22.10;15.85;;;;;;;12.20;53.38;100604.09;4906682;28;112102;-62
2021/01/05 00:50:24;;;;;;;21.77;15.52;;;;;;;12.19;53.63;100608.69;4919293;28;98468;-62
2021/01/05 00:52:51;;;;;;;22.10;16.25;;;;;;;12.20;53.55;100609.50;4921926;28;97887;-62
2021/01/05 00:55:17;;;;;;;21.67;15.65;;;;;;;12.19;53.67;100608.69;4885287;28;98327;-62
2021/01/05 00:57:43;;;;;;;21.17;15.52;;;;;;;12.19;53.26;100608.69;4877070;28;98532;-62
2021/01/05 01:00:28;;;;;;;23.17;15.82;;;;;;;12.19;53.58;100607.91;4861007;28;123776;-62
2021/01/05 01:02:54;;;;;;;23.45;16.23;;;;;;;12.20;53.31;100617.63;4842991;28;116328;-62
2021/01/05 01:05:21;;;;;;;22.08;15.13;;;;;;;12.22;53.52;100618.97;4882153;28;97730;-62
2021/01/05 01:07:47;;;;;;;22.58;15.65;;;;;;;12.20;53.44;100617.63;4864185;28;124628;-62
2021/01/05 01:10:13;;;;;;;23.60;16.52;;;;;;;12.21;53.20;100613.81;4882081;28;116434;-62
2021/01/05 01:12:40;;;;;;;23.45;16.08;;;;;;;12.20;53.68;100613.00;4877938;28;98000;-62
2021/01/05 01:15:06;;;;;;;23.13;16.15;;;;;;;12.20;53.52;100613.00;4879746;28;97878;-62
2021/01/05 01:17:32;;;;;;;24.27;16.50;;;;;;;12.20;53.38;100613.00;4880864;28;98807;-62
2021/01/05 01:19:59;;;;;;;22.42;16.25;;;;;;;12.20;53.40;100609.50;4882487;28;127554;-62
2021/01/05 01:22:25;;;;;;;21.65;15.20;;;;;;;12.21;53.27;100606.50;4891982;28;104603;-62
2021/01/05 01:24:51;;;;;;;24.00;16.63;;;;;;;12.24;53.20;100611.38;4874889;28;103238;-62
2021/01/05 01:27:18;;;;;;;23.02;16.58;;;;;;;12.22;53.30;100612.72;4881246;28;97982;-62
2021/01/05 01:29:44;;;;;;;23.23;16.48;;;;;;;12.20;53.31;100610.31;4876802;28;98470;-62
2021/01/05 01:32:10;;;;;;;22.65;16.02;;;;;;;12.21;53.11;100605.72;4881807;28;97872;-62
2021/01/05 01:34:36;;;;;;;22.52;16.33;;;;;;;12.21;53.03;100603.81;4857834;28;97952;-62
2021/01/05 01:37:11;;;;;;;23.25;16.35;;;;;;;12.22;53.61;100604.63;4863920;28;120070;-62
2021/01/05 01:39:38;;;;;;;23.10;16.65;;;;;;;12.22;53.32;100599.22;4865639;28;98350;-62
2021/01/05 01:42:06;;;;;;;22.90;16.80;;;;;;;12.20;53.30;100607.59;4881860;28;116693;-62
2021/01/05 01:44:38;;;;;;;22.77;16.15;;;;;;;12.18;53.19;100595.44;4882968;28;97926;-62
2021/01/05 01:47:35;;;;;;;22.20;16.20;;;;;;;12.15;53.54;100594.13;4882208;28;98447;-62
2021/01/05 01:50:08;;;;;;;23.60;16.73;;;;;;;12.17;53.38;100593.84;4871172;28;99022;-62
2021/01/05 01:53:40;;;;;;;21.80;16.00;;;;;;;12.15;53.65;100591.41;4899332;28;98325;-62
2021/01/05 01:56:41;;;;;;;22.67;16.38;;;;;;;12.15;53.37;100591.41;4859560;28;98195;-62
2021/01/05 01:59:40;;;;;;;23.70;16.30;;;;;;;12.19;53.16;100597.09;4919492;28;118325;-62
2021/01/05 02:02:10;;;;;;;23.15;16.30;;;;;;;12.21;53.45;100584.91;4912868;28;98474;-62
2021/01/05 02:05:12;;;;;;;25.80;16.95;;;;;;;12.26;52.94;100590.31;4885774;28;121076;-62
2021/01/05 02:08:01;;;;;;;24.98;16.92;;;;;;;12.28;53.19;100590.03;4883793;28;111563;-62
2021/01/05 02:10:55;;;;;;;22.02;15.68;;;;;;;12.34;53.11;100593.50;4902130;28;98774;-62
2021/01/05 02:13:49;;;;;;;22.73;16.98;;;;;;;12.37;52.83;100588.34;4878839;28;98244;-62
2021/01/05 02:16:28;;;;;;;24.33;16.25;;;;;;;12.34;53.02;100590.81;4904369;28;98078;-62
2021/01/05 02:19:06;;;;;;;22.08;16.67;;;;;;;12.40;52.99;100589.72;4892513;28;97807;-62
2021/01/05 02:22:03;;;;;;;21.63;15.85;;;;;;;12.36;52.81;100589.44;4886725;28;99432;-62
2021/01/05 02:24:41;;;;;;;22.98;17.00;;;;;;;12.39;52.98;100588.91;4890386;28;98607;-62
2021/01/05 02:27:10;;;;;;;23.40;16.33;;;;;;;12.40;52.98;100590.50;4923256;28;98044;-62
2021/01/05 02:29:56;;;;;;;22.50;15.90;;;;;;;12.40;52.80;100587.81;4906363;28;98041;-62
2021/01/05 02:32:49;;;;;;;23.80;16.40;;;;;;;12.38;52.79;100591.88;4887637;28;116037;-62
2021/01/05 02:35:52;;;;;;;20.95;15.70;;;;;;;12.37;53.04;100582.16;4905586;28;108999;-62
2021/01/05 02:39:07;;;;;;;22.75;16.48;;;;;;;12.37;52.95;100582.16;4905614;28;120649;-62
2021/01/05 02:42:53;;;;;;;21.70;16.08;;;;;;;12.32;53.03;100576.78;4920075;28;98163;-62
2021/01/05 02:45:23;;;;;;;24.45;16.60;;;;;;;12.33;53.11;100581.09;4862369;28;98234;-62
2021/01/05 02:48:17;;;;;;;22.83;16.35;;;;;;;12.34;52.83;100580.81;4861110;28;98436;-62
2021/01/05 02:51:10;;;;;;;23.27;16.70;;;;;;;12.34;52.94;100570.00;4909673;28;98519;-62
2021/01/05 02:54:00;;;;;;;;;;;;;;;12.30;53.04;100571.66;4922713;28;97958;-62
2021/01/05 02:56:57;;;;;;;26.08;17.33;;;;;;;12.27;53.07;100574.91;4922170;28;98313;-62
2021/01/05 02:59:23;;;;;;;22.02;16.52;;;;;;;12.31;52.94;100575.16;4922937;28;98494;-62
2021/01/05 03:02:34;;;;;;;23.60;16.70;;;;;;;12.27;53.34;100564.88;4923640;28;98010;-62
2021/01/05 03:05:01;;;;;;;21.63;16.52;;;;;;;12.29;52.90;100570.00;4904767;28;111876;-62
2021/01/05 03:07:28;;;;;;;23.67;17.30;;;;;;;12.32;52.92;100574.06;4920467;28;119179;-62
2021/01/05 03:10:32;;;;;;;23.33;16.52;;;;;;;12.28;52.69;100568.41;4904467;28;127918;-62
2021/01/05 03:13:20;;;;;;;22.52;16.13;;;;;;;12.29;52.83;100560.00;4914781;28;98371;-62
2021/01/05 03:15:58;;;;;;;22.65;16.95;;;;;;;12.26;52.97;100554.34;4885893;28;108895;-63
2021/01/05 03:18:56;;;;;;;23.00;16.67;;;;;;;12.28;52.98;100566.50;4869619;28;98223;-62
2021/01/05 03:21:33;;;;;;;22.80;16.25;;;;;;;12.28;52.69;100563.81;4885847;28;99086;-62
2021/01/05 03:23:59;;;;;;;23.73;16.50;;;;;;;12.27;53.09;100561.38;4869345;28;116232;-62
2021/01/05 03:26:39;;;;;;;22.90;16.05;;;;;;;12.26;52.87;100557.03;4869807;28;97953;-62
2021/01/05 03:29:05;;;;;;;23.77;16.38;;;;;;;12.26;53.00;100555.19;4865844;28;109039;-62
2021/01/05 03:31:40;;;;;;;23.27;16.98;;;;;;;12.26;53.20;100562.44;4865868;28;127767;-62
2021/01/05 03:34:06;;;;;;;22.88;15.70;;;;;;;12.27;52.86;100564.09;4883238;28;110277;-62
2021/01/05 03:36:32;;;;;;;21.63;15.82;;;;;;;12.27;53.07;100558.69;4884457;28;102123;-62
2021/01/05 03:38:58;;;;;;;22.15;16.30;;;;;;;12.27;52.97;100555.97;4908890;28;113222;-62
2021/01/05 03:41:24;;;;;;;22.83;16.50;;;;;;;12.26;53.56;100565.16;4913298;28;128706;-62
2021/01/05 03:43:50;;;;;;;20.65;16.33;;;;;;;12.27;52.87;100562.19;4903208;28;126481;-62
2021/01/05 03:46:16;;;;;;;24.70;16.58;;;;;;;12.28;53.06;100554.88;4904024;28;98016;-62
2021/01/05 03:48:42;;;;;;;22.08;16.42;;;;;;;12.29;53.09;100557.31;4902635;28;117830;-62
2021/01/05 03:51:09;;;;;;;21.55;16.00;;;;;;;12.28;53.00;100557.59;4901747;28;128560;-62
2021/01/05 03:53:35;;;;;;;21.90;15.63;;;;;;;12.28;52.81;100563.00;4884346;28;126636;-62
2021/01/05 03:56:01;;;;;;;23.02;16.25;;;;;;;12.26;52.93;100555.19;4914058;28;118001;-62
2021/01/05 03:58:27;;;;;;;22.52;15.65;;;;;;;12.26;53.02;100560.56;4922549;28;105115;-62
2021/01/05 04:00:53;;;;;;;21.65;15.73;;;;;;;12.25;53.24;100558.13;4921247;28;128530;-62
2021/01/05 04:03:20;;;;;;;22.27;15.82;;;;;;;12.26;53.10;100548.94;4922714;28;97923;-62
2021/01/05 04:05:46;;;;;;;20.73;15.57;;;;;;;12.24;53.06;100551.91;4922541;28;97720;-62
2021/01/05 04:08:12;;;;;;;20.65;15.77;;;;;;;12.26;53.21;100549.78;4922221;28;105445;-62
2021/01/05 04:10:38;;;;;;;22.27;16.13;;;;;;;12.26;53.00;100559.75;4902086;28;127723;-62
2021/01/05 04:13:04;;;;;;;21.23;15.63;;;;;;;12.24;53.10;100551.91;4902625;28;98037;-62
2021/01/05 04:15:30;;;;;;;21.65;15.02;;;;;;;12.26;53.10;100557.03;4901710;28;117530;-62
2021/01/05 04:17:58;;;;;;;21.02;15.50;;;;;;;12.24;53.26;100549.22;4902742;28;98894;-62
2021/01/05 04:20:25;;;;;;;20.83;15.00;;;;;;;12.24;52.98;100559.22;4902214;28;105956;-62
2021/01/05 04:22:51;;;;;;;21.63;14.95;;;;;;;12.23;52.62;100553.00;4885059;28;116711;-62
2021/01/05 04:25:18;;;;;;;20.35;15.25;;;;;;;12.25;53.04;100558.94;4921864;28;99278;-62
2021/01/05 04:27:44;;;;;;;23.65;15.85;;;;;;;12.23;53.07;100560.31;4921426;28;99183;-62
2021/01/05 04:30:40;;;;;;;20.05;14.95;;;;;;;12.19;53.16;100562.75;4920527;28;97744;-62
2021/01/05 04:33:10;;;;;;;22.00;15.20;;;;;;;12.19;53.17;100556.56;4908738;28;98092;-62
2021/01/05 04:35:36;;;;;;;20.58;15.45;;;;;;;12.21;53.15;100559.78;4918885;28;98128;-62
2021/01/05 04:38:03;;;;;;;19.15;14.45;;;;;;;12.23;52.97;100561.13;4902311;28;102604;-62
2021/01/05 04:40:37;;;;;;;20.42;14.95;;;;;;;12.23;53.04;100563.81;4901753;28;98886;-62
2021/01/05 04:43:34;;;;;;;19.25;14.55;;;;;;;12.17;52.92;100556.81;4902517;28;98249;-62
2021/01/05 04:46:15;;;;;;;20.60;14.57;;;;;;;12.17;52.80;100559.50;4902287;28;97857;-62
2021/01/05 04:48:55;;;;;;;20.55;14.48;;;;;;;12.18;53.22;100560.31;4902152;28;98273;-62
2021/01/05 04:51:27;;;;;;;20.25;14.65;;;;;;;12.15;53.10;100550.06;4900630;28;98607;-62
2021/01/05 04:54:22;;;;;;;18.35;13.98;;;;;;;12.20;52.94;100558.16;4902215;28;99036;-62
2021/01/05 04:57:16;;;;;;;20.75;15.23;;;;;;;12.15;53.16;100555.47;4900921;28;97961;-62
2021/01/05 04:59:47;;;;;;;20.23;14.90;;;;;;;12.16;53.16;100557.91;4902405;28;98470;-62
2021/01/05 05:02:25;;;;;;;18.52;14.13;;;;;;;12.17;53.11;100564.09;4902419;28;98420;-62
2021/01/05 05:04:59;;;;;;;19.20;14.25;;;;;;;12.15;53.22;100556.28;4916396;28;97697;-62
2021/01/05 05:07:31;;;;;;;19.48;15.02;;;;;;;12.18;53.39;100563.00;4903502;28;97982;-62
2021/01/05 05:10:11;;;;;;;20.75;15.25;;;;;;;12.16;53.05;100562.50;4921667;28;98894;-62
2021/01/05 05:12:50;;;;;;;19.88;14.40;;;;;;;12.16;53.20;100566.00;4918541;28;117612;-62
2021/01/05 05:15:36;;;;;;;18.75;13.68;;;;;;;12.15;53.17;100563.59;4919796;28;98115;-62
2021/01/05 05:18:33;;;;;;;20.17;14.77;;;;;;;12.13;53.44;100565.75;4922339;28;98137;-62
2021/01/05 05:21:32;;;;;;;19.42;14.23;;;;;;;12.11;53.21;100565.22;4909388;28;98721;-62
2021/01/05 05:24:21;;;;;;;20.42;14.50;;;;;;;12.11;53.51;100563.34;4919984;28;98136;-62
2021/01/05 05:27:04;;;;;;;20.38;13.73;;;;;;;12.11;53.38;100563.34;4920410;28;97973;-62
2021/01/05 05:29:30;;;;;;;19.17;13.73;;;;;;;12.14;52.99;100561.94;4919461;28;104802;-62
2021/01/05 05:31:59;;;;;;;20.08;14.10;;;;;;;12.16;53.26;100557.91;4914364;28;98164;-62
2021/01/05 05:34:57;;;;;;;20.30;13.85;;;;;;;12.13;53.08;100563.84;4884004;28;113027;-62
2021/01/05 05:37:54;;;;;;;18.85;13.75;;;;;;;12.11;53.29;100566.03;4903063;28;98117;-62
2021/01/05 05:40:41;;;;;;;19.35;13.05;;;;;;;12.10;53.44;100569.78;4906082;28;97674;-62
2021/01/05 05:43:23;;;;;;;20.13;13.80;;;;;;;12.13;53.49;100566.53;4922527;28;100123;-62
2021/01/05 05:46:07;;;;;;;18.45;13.10;;;;;;;12.14;53.15;100567.34;4924616;28;98423;-62
2021/01/05 05:49:26;;;;;;;18.25;13.40;;;;;;;12.10;53.24;100566.28;4922292;28;113764;-62
2021/01/05 05:51:53;;;;;;;19.02;13.57;;;;;;;12.14;53.00;100561.94;4924562;28;97828;-62
2021/01/05 05:54:21;;;;;;;18.15;13.23;;;;;;;12.13;53.16;100574.66;4905358;28;120837;-62
2021/01/05 05:57:21;;;;;;;18.80;13.50;;;;;;;12.10;53.41;100571.69;4924334;28;98691;-62
2021/01/05 05:59:52;;;;;;;19.70;13.15;;;;;;;12.15;53.20;100574.41;4921545;28;98474;-62
2021/01/05 06:02:20;;;;;;;17.23;12.82;;;;;;;12.14;53.42;100578.97;4906458;28;99166;-62
2021/01/05 06:04:46;;;;;;;19.23;13.55;;;;;;;12.15;53.01;100580.59;4924813;28;98326;-62
2021/01/05 06:07:12;;;;;;;20.67;14.07;;;;;;;12.15;53.03;100583.31;4888743;28;129853;-62
2021/01/05 06:09:38;;;;;;;18.95;13.48;;;;;;;12.19;53.32;100573.56;4889136;28;127496;-62
2021/01/05 06:12:06;;;;;;;17.65;13.13;;;;;;;12.15;52.90;100579.81;4922975;28;115793;-62
2021/01/05 06:14:32;;;;;;;17.02;12.82;;;;;;;12.15;53.08;100577.91;4923896;28;99430;-62
2021/01/05 06:16:58;;;;;;;17.30;13.00;;;;;;;12.14;53.27;100583.56;4922928;28;118500;-62
2021/01/05 06:19:24;;;;;;;19.02;13.88;;;;;;;12.15;53.03;100586.00;4923816;28;127588;-62
2021/01/05 06:21:51;;;;;;;17.38;12.77;;;;;;;12.14;53.30;100581.66;4924425;28;98274;-62
2021/01/05 06:24:17;;;;;;;18.23;12.77;;;;;;;12.16;53.19;100584.13;4904596;28;128760;-62
2021/01/05 06:26:43;;;;;;;18.17;12.85;;;;;;;12.14;53.04;100581.66;4924365;28;98564;-62
2021/01/05 06:29:09;;;;;;;18.77;13.25;;;;;;;12.15;52.99;100580.59;4903819;28;127474;-62
2021/01/05 06:31:35;;;;;;;20.30;12.90;;;;;;;12.14;53.26;100578.16;4904475;28;97856;-62
2021/01/05 06:34:01;;;;;;;18.40;12.82;;;;;;;12.14;53.31;100580.88;4903224;28;127796;-62
2021/01/05 06:36:27;;;;;;;17.42;12.50;;;;;;;12.12;53.40;100574.94;4903408;28;128060;-62
2021/01/05 06:38:53;;;;;;;16.30;12.30;;;;;;;12.12;53.37;100580.34;4903665;28;118893;-62
2021/01/05 06:41:19;;;;;;;18.40;12.80;;;;;;;12.12;53.01;100585.75;4905039;28;97786;-62
2021/01/05 06:43:45;;;;;;;18.85;12.60;;;;;;;12.13;52.93;100584.66;4886412;28;104890;-62
2021/01/05 06:46:11;;;;;;;16.27;12.02;;;;;;;12.11;52.96;100584.94;4902426;28;126564;-62
2021/01/05 06:48:37;;;;;;;18.67;12.38;;;;;;;12.13;53.33;100587.38;4869599;28;111318;-62
2021/01/05 06:51:05;;;;;;;16.75;12.18;;;;;;;12.13;53.29;100582.75;4904677;28;97963;-62
2021/01/05 06:53:31;;;;;;;18.13;12.60;;;;;;;12.12;52.76;100585.75;4884973;28;99004;-62
2021/01/05 06:55:57;;;;;;;16.45;11.88;;;;;;;12.10;52.82;100587.91;4904100;28;128714;-62
2021/01/05 06:58:23;;;;;;;18.02;12.27;;;;;;;12.11;52.93;100586.84;4901672;28;127240;-62
2021/01/05 07:00:49;;;;;;;16.63;12.02;;;;;;;12.10;52.96;100590.59;4901326;28;97974;-62
2021/01/05 07:03:15;;;;;;;17.77;12.20;;;;;;;12.07;52.83;100585.78;4899906;28;126454;-62
2021/01/05 07:05:41;;;;;;;16.13;11.45;;;;;;;12.10;53.20;100596.81;4882657;28;125847;-62
2021/01/05 07:08:07;;;;;;;15.35;11.48;;;;;;;12.09;52.62;100595.19;4900779;28;128065;-62
2021/01/05 07:10:33;;;;;;;16.52;11.80;;;;;;;12.07;52.69;100602.78;4900813;28;117038;-62
2021/01/05 07:12:59;;;;;;;14.98;10.88;;;;;;;12.09;53.01;100602.50;4897250;28;115975;-62
2021/01/05 07:15:25;;;;;;;17.95;11.85;;;;;;;12.09;52.78;100605.22;4038474;28;10000888;-62
2021/01/05 07:17:51;;;;;;;15.80;10.88;;;;;;;12.09;53.03;100608.72;4916279;28;98270;-62
2021/01/05 07:20:17;;;;;;;15.68;11.20;;;;;;;12.10;52.86;100599.50;4898063;28;98170;-62
2021/01/05 07:22:43;;;;;;;15.38;10.98;;;;;;;12.07;52.80;100599.28;4887950;28;99238;-62
2021/01/05 07:25:14;;;;;;;14.98;11.25;;;;;;;12.09;52.83;100597.09;4021739;28;10000413;-62
2021/01/05 07:27:43;;;;;;;15.20;10.82;;;;;;;12.09;53.10;100602.50;4904110;28;98154;-62
2021/01/05 07:30:09;;;;;;;14.93;10.38;;;;;;;12.08;52.83;100598.19;4900183;28;117800;-62
2021/01/05 07:32:36;;;;;;;14.63;10.27;;;;;;;12.10;52.74;100604.91;4899238;28;100024;-62
2021/01/05 07:35:02;;;;;;;15.20;11.00;;;;;;;12.10;52.61;100610.31;4900835;28;98622;-62
2021/01/05 07:37:30;;;;;;;14.80;10.48;;;;;;;12.09;52.77;100616.81;4901100;28;97877;-62
2021/01/05 07:39:57;;;;;;;16.40;10.52;;;;;;;12.10;52.63;100617.63;4901264;28;97906;-62
2021/01/05 07:42:26;;;;;;;14.70;10.60;;;;;;;12.09;53.14;100616.00;4919420;28;98216;-62
2021/01/05 07:44:54;;;;;;;15.45;10.60;;;;;;;12.10;52.75;100613.03;4919900;28;114458;-62
2021/01/05 07:47:22;;;;;;;13.32;10.02;;;;;;;12.09;52.98;100607.91;4918798;28;97981;-62
2021/01/05 07:49:48;;;;;;;14.82;10.52;;;;;;;12.10;52.86;100614.91;4919104;28;98367;-62
2021/01/05 07:52:39;;;;;;;14.32;10.23;;;;;;;12.07;53.24;100613.59;4903267;28;102178;-62
2021/01/05 07:55:08;;;;;;;15.07;10.35;;;;;;;12.08;53.31;100612.50;4881506;28;100322;-62
2021/01/05 07:57:34;;;;;;;14.52;10.00;;;;;;;12.10;53.02;100618.44;4880537;28;98171;-62
2021/01/05 08:00:00;;;;;;;17.58;10.85;;;;;;;12.08;53.14;100617.91;4880327;28;116795;-62
2021/01/05 08:02:26;;;;;;;13.88;10.27;;;;;;;12.11;52.98;100619.28;4880815;28;119094;-62
2021/01/05 08:04:53;;;;;;;14.13;10.40;;;;;;;12.09;53.54;100621.41;4899499;28;99142;-62
2021/01/05 08:07:19;;;;;;;16.65;11.05;;;;;;;12.11;53.39;100624.66;4899894;28;98567;-62
2021/01/05 08:09:45;;;;;;;15.02;10.50;;;;;;;12.11;53.38;100611.97;4911994;28;116495;-62
2021/01/05 08:12:16;;;;;;;12.77;9.60;;;;;;;12.13;53.58;100614.38;4910476;28;128071;-62
2021/01/05 08:14:42;;;;;;;15.13;10.48;;;;;;;12.16;53.73;100617.34;4900165;28;97826;-62
2021/01/05 08:17:09;;;;;;;16.13;10.73;;;;;;;12.16;53.81;100608.44;4899919;28;98115;-62
2021/01/05 08:19:35;;;;;;;14.60;10.38;;;;;;;12.17;53.72;100608.16;4900966;28;97919;-63
2021/01/05 08:22:01;;;;;;;14.00;10.07;;;;;;;12.17;53.88;100607.34;4898632;28;102558;-62
2021/01/05 08:24:27;;;;;;;14.05;9.90;;;;;;;12.19;54.13;100613.31;4900202;28;114018;-62
2021/01/05 08:26:53;;;;;;;14.93;10.00;;;;;;;12.18;54.04;100603.56;4900625;28;122014;-63
2021/01/05 08:29:19;;;;;;;14.45;10.55;;;;;;;12.21;53.86;100611.13;4908638;28;104223;-62
2021/01/05 08:31:48;;;;;;;14.00;10.27;;;;;;;12.22;54.12;100607.31;4917668;28;119975;-62
2021/01/05 08:34:14;;;;;;;15.65;10.88;;;;;;;12.25;53.80;100609.47;4917226;28;98535;-62
2021/01/05 08:36:40;;;;;;;15.00;10.20;;;;;;;12.21;54.23;100608.41;4918436;28;123637;-62
2021/01/05 08:39:06;;;;;;;14.43;10.68;;;;;;;12.24;54.50;100607.88;4917864;28;97815;-62
2021/01/05 08:41:32;;;;;;;13.18;10.15;;;;;;;12.22;54.64;100608.16;4918734;28;120184;-62
2021/01/05 08:43:58;;;;;;;14.65;10.50;;;;;;;12.25;54.13;100609.47;4917502;28;128507;-62
2021/01/05 08:46:26;;;;;;;13.93;10.40;;;;;;;12.25;54.37;100606.78;4919095;28;98030;-62
2021/01/05 08:48:53;;;;;;;14.88;10.50;;;;;;;12.23;54.45;100606.25;4898671;28;98161;-62
2021/01/05 08:51:20;;;;;;;14.88;10.63;;;;;;;12.22;54.54;100608.16;4866009;28;98792;-62
2021/01/05 08:53:47;;;;;;;14.80;10.68;;;;;;;12.22;54.50;100610.88;4891161;28;101154;-62
2021/01/05 08:56:22;;;;;;;15.88;11.02;;;;;;;12.21;54.99;100613.81;4916326;28;112955;-62
2021/01/05 08:58:48;;;;;;;16.30;10.70;;;;;;;12.25;54.61;100610.28;4916972;28;98393;-62
2021/01/05 09:01:14;;;;;;;14.25;10.55;;;;;;;12.27;55.13;100615.44;4919955;28;98562;-62
2021/01/05 09:03:41;;;;;;;14.98;10.77;;;;;;;12.33;54.72;100616.22;4918552;28;98254;-62
2021/01/05 09:06:07;;;;;;;14.60;10.85;;;;;;;12.34;54.62;100613.25;4919185;28;98432;-62
2021/01/05 09:08:34;;;;;;;13.88;10.98;;;;;;;12.40;54.86;100614.84;4899957;28;97851;-62
2021/01/05 09:11:02;;;;;;;13.95;9.95;;;;;;;12.44;54.50;100615.09;4913504;28;98472;-61
2021/01/05 09:13:28;;;;;;;15.05;10.52;;;;;;;12.44;54.70;100615.09;4900824;28;98393;-62
2021/01/05 09:15:55;;;;;;;12.82;10.00;;;;;;;12.47;54.52;100614.56;4909705;28;97915;-62
2021/01/05 09:18:21;;;;;;;12.98;10.27;;;;;;;12.48;54.83;100614.28;4901054;28;97957;-63
2021/01/05 09:20:56;;;;;;;12.65;10.05;;;;;;;12.48;54.57;100611.56;4918167;28;115394;-62
2021/01/05 09:23:23;;;;;;;14.93;10.30;;;;;;;12.50;54.70;100608.59;4917677;28;98258;-62
2021/01/05 09:25:54;;;;;;;12.52;9.40;;;;;;;12.48;54.71;100603.47;4919045;28;97883;-62
2021/01/05 09:28:21;;;;;;;12.43;9.38;;;;;;;12.50;54.45;100605.91;4907838;28;98152;-62
2021/01/05 09:30:48;;;;;;;12.05;9.45;;;;;;;12.48;55.01;100608.06;4881546;28;100523;-62
2021/01/05 09:33:14;;;;;;;12.63;9.05;;;;;;;12.52;54.83;100609.13;4898860;28;118609;-62
2021/01/05 09:35:40;;;;;;;12.20;9.77;;;;;;;12.52;54.87;100606.41;4904340;28;119604;-62
2021/01/05 09:38:08;;;;;;;10.85;8.90;;;;;;;12.53;54.93;100600.72;4917521;28;98161;-61
2021/01/05 09:40:37;;;;;;;11.43;8.95;;;;;;;12.53;54.85;100606.13;4900143;28;97953;-62
2021/01/05 09:43:09;;;;;;;11.43;9.25;;;;;;;12.54;54.83;100598.84;4916712;28;99227;-62
2021/01/05 09:45:36;;;;;;;;;;;;;;;12.51;54.99;100608.31;4918433;28;118470;-62
2021/01/05 09:48:09;;;;;;;10.98;9.20;;;;;;;12.49;55.19;100602.38;4918536;28;108248;-62
2021/01/05 09:50:35;;;;;;;11.25;8.77;;;;;;;12.51;55.16;100602.09;4879283;28;98775;-62
2021/01/05 09:53:02;;;;;;;11.93;9.20;;;;;;;12.53;55.06;100594.50;4879534;28;98497;-62
2021/01/05 09:55:28;;;;;;;11.55;8.88;;;;;;;12.52;55.40;100598.31;4917067;28;127637;-62
2021/01/05 09:57:54;;;;;;;10.35;8.13;;;;;;;12.55;55.28;100603.16;4918392;28;97986;-62
2021/01/05 10:00:21;;;;;;;10.50;9.07;;;;;;;12.55;55.27;100591.56;4917569;28;128485;-62
2021/01/05 10:02:47;;;;;;;10.93;8.77;;;;;;;12.56;55.29;100593.16;4918282;28;98067;-62
2021/01/05 10:05:14;;;;;;;11.57;9.13;;;;;;;12.55;55.13;100591.56;4917970;28;107353;-62
2021/01/05 10:07:40;;;;;;;11.90;8.85;;;;;;;12.57;55.42;100586.66;4917982;28;98196;-62
2021/01/05 10:10:08;;;;;;;11.65;9.25;;;;;;;12.59;55.19;100590.72;4916976;28;98614;-62
2021/01/05 10:12:34;;;;;;;10.55;8.55;;;;;;;12.61;55.40;100585.00;4892910;28;98696;-62
2021/01/05 10:15:00;;;;;;;10.32;8.48;;;;;;;12.62;55.09;100579.34;4917609;28;125786;-62
2021/01/05 10:17:26;;;;;;;11.30;9.18;;;;;;;12.63;55.03;100582.84;4918372;28;115725;-62
2021/01/05 10:19:53;;;;;;;11.27;8.88;;;;;;;12.63;55.23;100580.97;4916355;28;126236;-62
2021/01/05 10:22:19;;;;;;;9.98;8.45;;;;;;;12.68;55.34;100583.63;4901884;28;98153;-62
2021/01/05 10:24:45;;;;;;;9.70;8.48;;;;;;;12.67;54.92;100582.00;4902306;28;118365;-62
2021/01/05 10:27:11;;;;;;;9.88;8.43;;;;;;;12.66;55.10;100577.69;4901502;28;117132;-62
2021/01/05 10:29:37;;;;;;;11.02;8.85;;;;;;;12.66;55.43;100585.81;4914144;28;98574;-62
2021/01/05 10:32:03;;;;;;;12.15;8.88;;;;;;;12.67;55.36;100586.63;4919914;28;128307;-62
2021/01/05 10:34:29;;;;;;;10.70;8.70;;;;;;;12.68;55.12;100580.13;4908683;28;98568;-62
2021/01/05 10:36:57;;;;;;;10.80;9.10;;;;;;;12.67;55.28;100582.00;4901742;28;116677;-62
2021/01/05 10:39:23;;;;;;;10.27;9.15;;;;;;;12.68;55.26;100585.53;4901462;28;98369;-63
2021/01/05 10:41:49;;;;;;;11.50;8.93;;;;;;;12.65;55.26;100572.56;4900018;28;98696;-62
2021/01/05 10:44:17;;;;;;;12.18;8.82;;;;;;;12.64;55.44;100577.16;4882830;28;114911;-62
2021/01/05 10:46:43;;;;;;;11.73;9.35;;;;;;;12.64;55.21;100574.44;4884132;28;98056;-62
2021/01/05 10:49:10;;;;;;;11.00;8.93;;;;;;;12.63;55.58;100574.75;4899583;28;98158;-62
2021/01/05 10:51:47;;;;;;;10.68;9.20;;;;;;;12.65;55.19;100570.66;4882900;28;116715;-62
2021/01/05 10:54:14;;;;;;;12.27;9.40;;;;;;;12.65;55.45;100576.06;4884168;28;101162;-62
2021/01/05 10:56:40;;;;;;;12.38;9.63;;;;;;;12.63;55.24;100580.16;4902016;28;97737;-62
2021/01/05 10:59:06;;;;;;;12.45;9.40;;;;;;;12.66;55.43;100569.59;4910979;28;98970;-62
2021/01/05 11:01:32;;;;;;;12.40;9.35;;;;;;;12.63;55.82;100577.44;4902683;28;127591;-62
2021/01/05 11:03:58;;;;;;;12.40;9.50;;;;;;;12.64;55.27;100571.75;4913485;28;127436;-62
2021/01/05 11:06:24;;;;;;;11.45;9.07;;;;;;;12.64;55.53;100573.66;4910553;28;117673;-62
2021/01/05 11:08:50;;;;;;;12.43;9.20;;;;;;;12.62;55.23;100573.94;4920872;28;98503;-62
2021/01/05 11:11:18;;;;;;;11.48;9.57;;;;;;;12.63;55.36;100574.75;4919791;28;127794;-62
2021/01/05 11:13:44;;;;;;;11.50;9.18;;;;;;;12.61;55.41;100572.31;4902739;28;98185;-62
2021/01/05 11:16:11;;;;;;;11.70;9.35;;;;;;;12.62;55.15;100570.44;4907645;28;117019;-62
2021/01/05 11:18:39;;;;;;;13.85;9.77;;;;;;;12.62;55.50;100565.03;4900868;28;98473;-62
2021/01/05 11:21:05;;;;;;;12.13;9.40;;;;;;;12.61;55.29;100572.31;4898109;28;119946;-62
2021/01/05 11:23:31;;;;;;;11.70;9.40;;;;;;;12.61;55.19;100563.38;4898789;28;114243;-62
2021/01/05 11:25:57;;;;;;;12.20;9.75;;;;;;;12.61;55.42;100556.06;4901770;28;117555;-62
2021/01/05 11:28:23;;;;;;;10.90;8.95;;;;;;;12.62;55.14;100556.91;4900135;28;117570;-62